sensor_id;sensor_type;location;lat;lon;timestamp;temperature;humidity
13880;DHT22;7010;48.200;16.332;2022-07-06T00:01:30;18.80;99.90
13880;DHT22;7010;48.200;16.332;2022-07-06T00:04:00;18.90;99.90
13880;DHT22;7010;48.200;16.332;2022-07-06T00:06:29;18.90;99.90
13880;DHT22;7010;48.200;16.332;2022-07-06T00:08:57;19.00;99.90
13880;DHT22;7010;48.200;16.332;2022-07-06T00:11:27;19.00;99.90
13880;DHT22;7010;48.200;16.332;2022-07-06T00:13:56;19.00;99.90
13880;DHT22;7010;48.200;16.332;2022-07-06T00:16:25;18.90;99.90
13880;DHT22;7010;48.200;16.332;2022-07-06T00:18:53;18.90;99.90
13880;DHT22;7010;48.200;16.332;2022-07-06T00:21:21;18.80;99.90
13880;DHT22;7010;48.200;16.332;2022-07-06T00:23:50;18.90;99.90
13880;DHT22;7010;48.200;16.332;2022-07-06T00:26:19;18.90;99.90
13880;DHT22;7010;48.200;16.332;2022-07-06T00:28:49;18.90;99.90
13880;DHT22;7010;48.200;16.332;2022-07-06T00:31:17;18.90;99.90
13880;DHT22;7010;48.200;16.332;2022-07-06T00:33:46;19.00;99.90
13880;DHT22;7010;48.200;16.332;2022-07-06T00:36:14;19.00;99.90
13880;DHT22;7010;48.200;16.332;2022-07-06T00:38:43;19.00;99.90
13880;DHT22;7010;48.200;16.332;2022-07-06T00:41:12;19.00;99.90
13880;DHT22;7010;48.200;16.332;2022-07-06T00:43:50;19.10;99.90
13880;DHT22;7010;48.200;16.332;2022-07-06T00:46:19;19.10;99.90
13880;DHT22;7010;48.200;16.332;2022-07-06T00:48:48;19.10;99.90
13880;DHT22;7010;48.200;16.332;2022-07-06T00:51:16;19.10;99.90
13880;DHT22;7010;48.200;16.332;2022-07-06T00:53:46;19.00;99.90
13880;DHT22;7010;48.200;16.332;2022-07-06T00:56:14;18.90;99.90
13880;DHT22;7010;48.200;16.332;2022-07-06T00:58:43;19.00;99.90
13880;DHT22;7010;48.200;16.332;2022-07-06T01:01:13;18.90;99.90
13880;DHT22;7010;48.200;16.332;2022-07-06T01:03:42;18.90;99.90
13880;DHT22;7010;48.200;16.332;2022-07-06T01:06:10;18.90;99.90
13880;DHT22;7010;48.200;16.332;2022-07-06T01:08:39;18.90;99.90
13880;DHT22;7010;48.200;16.332;2022-07-06T01:11:07;18.90;99.90
13880;DHT22;7010;48.200;16.332;2022-07-06T01:13:35;18.90;99.90
13880;DHT22;7010;48.200;16.332;2022-07-06T01:16:04;18.90;99.90
13880;DHT22;7010;48.200;16.332;2022-07-06T01:18:34;18.90;99.90
13880;DHT22;7010;48.200;16.332;2022-07-06T01:21:09;18.90;99.90
13880;DHT22;7010;48.200;16.332;2022-07-06T01:23:42;18.90;99.90
13880;DHT22;7010;48.200;16.332;2022-07-06T01:26:13;18.90;99.90
13880;DHT22;7010;48.200;16.332;2022-07-06T01:28:42;18.90;99.90
13880;DHT22;7010;48.200;16.332;2022-07-06T01:31:14;18.90;99.90
13880;DHT22;7010;48.200;16.332;2022-07-06T01:33:43;18.90;99.90
13880;DHT22;7010;48.200;16.332;2022-07-06T01:36:13;18.90;99.90
13880;DHT22;7010;48.200;16.332;2022-07-06T01:38:46;18.90;99.90
13880;DHT22;7010;48.200;16.332;2022-07-06T01:41:14;18.90;99.90
13880;DHT22;7010;48.200;16.332;2022-07-06T01:43:42;18.90;99.90
13880;DHT22;7010;48.200;16.332;2022-07-06T01:46:11;19.00;99.90
13880;DHT22;7010;48.200;16.332;2022-07-06T01:48:40;19.00;99.90
13880;DHT22;7010;48.200;16.332;2022-07-06T01:51:08;19.00;99.90
13880;DHT22;7010;48.200;16.332;2022-07-06T01:53:38;19.00;99.90
13880;DHT22;7010;48.200;16.332;2022-07-06T01:56:07;19.10;99.90
13880;DHT22;7010;48.200;16.332;2022-07-06T01:58:36;19.10;99.90
13880;DHT22;7010;48.200;16.332;2022-07-06T02:01:08;19.10;99.90
13880;DHT22;7010;48.200;16.332;2022-07-06T02:03:37;19.10;99.90
13880;DHT22;7010;48.200;16.332;2022-07-06T02:06:06;19.10;99.90
13880;DHT22;7010;48.200;16.332;2022-07-06T02:08:34;19.10;99.90
13880;DHT22;7010;48.200;16.332;2022-07-06T02:11:05;19.10;99.90
13880;DHT22;7010;48.200;16.332;2022-07-06T02:13:34;19.20;99.90
13880;DHT22;7010;48.200;16.332;2022-07-06T02:16:03;19.20;99.90
13880;DHT22;7010;48.200;16.332;2022-07-06T02:18:32;19.20;99.90
13880;DHT22;7010;48.200;16.332;2022-07-06T02:21:00;19.30;99.90
13880;DHT22;7010;48.200;16.332;2022-07-06T02:23:29;19.30;99.90
13880;DHT22;7010;48.200;16.332;2022-07-06T02:25:57;19.30;99.90
13880;DHT22;7010;48.200;16.332;2022-07-06T02:28:27;19.30;99.90
13880;DHT22;7010;48.200;16.332;2022-07-06T02:30:55;19.30;99.90
13880;DHT22;7010;48.200;16.332;2022-07-06T02:33:23;19.30;99.90
13880;DHT22;7010;48.200;16.332;2022-07-06T02:35:52;19.30;99.90
13880;DHT22;7010;48.200;16.332;2022-07-06T02:38:20;19.30;99.90
13880;DHT22;7010;48.200;16.332;2022-07-06T02:40:49;19.20;99.90
13880;DHT22;7010;48.200;16.332;2022-07-06T02:43:17;19.20;99.90
13880;DHT22;7010;48.200;16.332;2022-07-06T02:45:47;19.20;99.90
13880;DHT22;7010;48.200;16.332;2022-07-06T02:48:15;19.10;99.90
13880;DHT22;7010;48.200;16.332;2022-07-06T02:50:44;19.10;99.90
13880;DHT22;7010;48.200;16.332;2022-07-06T02:53:12;19.00;99.90
13880;DHT22;7010;48.200;16.332;2022-07-06T02:55:41;19.00;99.90
13880;DHT22;7010;48.200;16.332;2022-07-06T02:58:09;18.90;99.90
13880;DHT22;7010;48.200;16.332;2022-07-06T03:00:37;18.90;99.90
13880;DHT22;7010;48.200;16.332;2022-07-06T03:03:07;18.90;99.90
13880;DHT22;7010;48.200;16.332;2022-07-06T03:05:37;18.80;99.90
13880;DHT22;7010;48.200;16.332;2022-07-06T03:08:05;18.80;99.90
13880;DHT22;7010;48.200;16.332;2022-07-06T03:10:33;18.80;99.90
13880;DHT22;7010;48.200;16.332;2022-07-06T03:13:02;18.70;99.90
13880;DHT22;7010;48.200;16.332;2022-07-06T03:15:30;18.70;99.90
13880;DHT22;7010;48.200;16.332;2022-07-06T03:17:58;18.70;99.90
13880;DHT22;7010;48.200;16.332;2022-07-06T03:20:28;18.70;99.90
13880;DHT22;7010;48.200;16.332;2022-07-06T03:22:56;18.70;99.90
13880;DHT22;7010;48.200;16.332;2022-07-06T03:25:25;18.70;99.90
13880;DHT22;7010;48.200;16.332;2022-07-06T03:27:53;18.70;99.90
13880;DHT22;7010;48.200;16.332;2022-07-06T03:30:21;18.70;99.90
13880;DHT22;7010;48.200;16.332;2022-07-06T03:32:50;18.70;99.90
13880;DHT22;7010;48.200;16.332;2022-07-06T03:35:18;18.60;99.90
13880;DHT22;7010;48.200;16.332;2022-07-06T03:37:48;18.60;99.90
13880;DHT22;7010;48.200;16.332;2022-07-06T03:40:16;18.60;99.90
13880;DHT22;7010;48.200;16.332;2022-07-06T03:42:44;18.60;99.90
13880;DHT22;7010;48.200;16.332;2022-07-06T03:45:12;18.60;99.90
13880;DHT22;7010;48.200;16.332;2022-07-06T03:47:41;18.60;99.90
13880;DHT22;7010;48.200;16.332;2022-07-06T03:50:09;18.60;99.90
13880;DHT22;7010;48.200;16.332;2022-07-06T03:52:37;18.60;99.90
13880;DHT22;7010;48.200;16.332;2022-07-06T03:55:10;18.60;99.90
13880;DHT22;7010;48.200;16.332;2022-07-06T03:57:38;18.60;99.90
13880;DHT22;7010;48.200;16.332;2022-07-06T04:00:08;18.50;99.90
13880;DHT22;7010;48.200;16.332;2022-07-06T04:02:37;18.50;99.90
13880;DHT22;7010;48.200;16.332;2022-07-06T04:05:06;18.60;99.90
13880;DHT22;7010;48.200;16.332;2022-07-06T04:07:34;18.60;99.90
13880;DHT22;7010;48.200;16.332;2022-07-06T04:10:03;18.70;99.90
13880;DHT22;7010;48.200;16.332;2022-07-06T04:12:39;18.70;99.90
13880;DHT22;7010;48.200;16.332;2022-07-06T04:15:09;18.70;99.90
13880;DHT22;7010;48.200;16.332;2022-07-06T04:17:37;18.70;99.90
13880;DHT22;7010;48.200;16.332;2022-07-06T04:20:21;18.80;99.90
13880;DHT22;7010;48.200;16.332;2022-07-06T04:22:50;18.80;99.90
13880;DHT22;7010;48.200;16.332;2022-07-06T04:25:18;18.90;99.90
13880;DHT22;7010;48.200;16.332;2022-07-06T04:27:48;18.90;99.90
13880;DHT22;7010;48.200;16.332;2022-07-06T04:30:16;18.90;99.90
13880;DHT22;7010;48.200;16.332;2022-07-06T04:32:45;19.00;99.90
13880;DHT22;7010;48.200;16.332;2022-07-06T04:35:13;19.00;99.90
13880;DHT22;7010;48.200;16.332;2022-07-06T04:37:41;19.10;99.90
13880;DHT22;7010;48.200;16.332;2022-07-06T04:40:10;19.20;99.90
13880;DHT22;7010;48.200;16.332;2022-07-06T04:42:44;19.20;99.90
13880;DHT22;7010;48.200;16.332;2022-07-06T04:45:14;19.40;99.90
13880;DHT22;7010;48.200;16.332;2022-07-06T04:47:42;19.40;99.90
13880;DHT22;7010;48.200;16.332;2022-07-06T04:50:11;19.50;99.90
13880;DHT22;7010;48.200;16.332;2022-07-06T04:52:39;19.50;99.90
13880;DHT22;7010;48.200;16.332;2022-07-06T04:55:08;19.60;99.90
13880;DHT22;7010;48.200;16.332;2022-07-06T04:57:37;19.70;99.90
13880;DHT22;7010;48.200;16.332;2022-07-06T05:00:06;19.70;99.90
13880;DHT22;7010;48.200;16.332;2022-07-06T05:02:36;19.80;99.90
13880;DHT22;7010;48.200;16.332;2022-07-06T05:05:05;19.80;99.90
13880;DHT22;7010;48.200;16.332;2022-07-06T05:07:33;19.80;99.90
13880;DHT22;7010;48.200;16.332;2022-07-06T05:10:07;19.80;99.90
13880;DHT22;7010;48.200;16.332;2022-07-06T05:12:36;19.80;99.90
13880;DHT22;7010;48.200;16.332;2022-07-06T05:15:05;19.80;99.90
13880;DHT22;7010;48.200;16.332;2022-07-06T05:17:34;19.80;99.90
13880;DHT22;7010;48.200;16.332;2022-07-06T05:20:05;19.80;99.90
13880;DHT22;7010;48.200;16.332;2022-07-06T05:22:33;19.80;99.90
13880;DHT22;7010;48.200;16.332;2022-07-06T05:25:09;19.90;99.90
13880;DHT22;7010;48.200;16.332;2022-07-06T05:27:38;19.90;99.90
13880;DHT22;7010;48.200;16.332;2022-07-06T05:30:07;20.00;99.90
13880;DHT22;7010;48.200;16.332;2022-07-06T05:32:35;20.10;99.90
13880;DHT22;7010;48.200;16.332;2022-07-06T05:35:06;20.20;99.90
13880;DHT22;7010;48.200;16.332;2022-07-06T05:37:55;20.30;99.90
13880;DHT22;7010;48.200;16.332;2022-07-06T05:40:23;20.30;99.90
13880;DHT22;7010;48.200;16.332;2022-07-06T05:42:51;20.50;99.90
13880;DHT22;7010;48.200;16.332;2022-07-06T05:45:20;20.70;99.90
13880;DHT22;7010;48.200;16.332;2022-07-06T05:47:49;20.80;99.90
13880;DHT22;7010;48.200;16.332;2022-07-06T05:50:32;20.80;99.90
13880;DHT22;7010;48.200;16.332;2022-07-06T05:53:03;20.80;99.90
13880;DHT22;7010;48.200;16.332;2022-07-06T05:55:43;20.90;99.90
13880;DHT22;7010;48.200;16.332;2022-07-06T05:58:11;20.90;99.90
13880;DHT22;7010;48.200;16.332;2022-07-06T06:00:39;20.90;99.90
13880;DHT22;7010;48.200;16.332;2022-07-06T06:03:07;20.90;99.90
13880;DHT22;7010;48.200;16.332;2022-07-06T06:05:37;21.00;99.90
13880;DHT22;7010;48.200;16.332;2022-07-06T06:08:05;21.10;99.90
13880;DHT22;7010;48.200;16.332;2022-07-06T06:10:34;21.20;99.90
13880;DHT22;7010;48.200;16.332;2022-07-06T06:13:02;21.10;99.90
13880;DHT22;7010;48.200;16.332;2022-07-06T06:15:30;21.10;99.90
13880;DHT22;7010;48.200;16.332;2022-07-06T06:17:59;21.20;99.90
13880;DHT22;7010;48.200;16.332;2022-07-06T06:20:27;21.20;99.90
13880;DHT22;7010;48.200;16.332;2022-07-06T06:22:58;21.20;99.90
13880;DHT22;7010;48.200;16.332;2022-07-06T06:25:31;21.30;99.90
13880;DHT22;7010;48.200;16.332;2022-07-06T06:28:00;21.40;99.90
13880;DHT22;7010;48.200;16.332;2022-07-06T06:30:28;21.50;99.90
13880;DHT22;7010;48.200;16.332;2022-07-06T06:33:11;21.70;99.90
13880;DHT22;7010;48.200;16.332;2022-07-06T06:35:42;21.80;99.90
13880;DHT22;7010;48.200;16.332;2022-07-06T06:38:13;22.00;99.90
13880;DHT22;7010;48.200;16.332;2022-07-06T06:40:42;22.10;99.90
13880;DHT22;7010;48.200;16.332;2022-07-06T06:43:10;22.20;99.90
13880;DHT22;7010;48.200;16.332;2022-07-06T06:45:38;22.40;99.90
13880;DHT22;7010;48.200;16.332;2022-07-06T06:48:07;22.50;99.90
13880;DHT22;7010;48.200;16.332;2022-07-06T06:50:43;22.50;99.90
13880;DHT22;7010;48.200;16.332;2022-07-06T06:53:12;22.40;99.90
13880;DHT22;7010;48.200;16.332;2022-07-06T06:55:41;22.30;99.90
13880;DHT22;7010;48.200;16.332;2022-07-06T06:58:09;22.30;99.90
13880;DHT22;7010;48.200;16.332;2022-07-06T07:00:37;22.30;99.90
13880;DHT22;7010;48.200;16.332;2022-07-06T07:03:06;22.40;99.90
13880;DHT22;7010;48.200;16.332;2022-07-06T07:05:34;22.40;99.90
13880;DHT22;7010;48.200;16.332;2022-07-06T07:08:03;22.60;99.90
13880;DHT22;7010;48.200;16.332;2022-07-06T07:10:33;22.90;99.90
13880;DHT22;7010;48.200;16.332;2022-07-06T07:13:01;23.10;99.90
13880;DHT22;7010;48.200;16.332;2022-07-06T07:15:29;23.30;99.90
13880;DHT22;7010;48.200;16.332;2022-07-06T07:17:58;23.60;99.90
13880;DHT22;7010;48.200;16.332;2022-07-06T07:20:26;23.90;99.90
13880;DHT22;7010;48.200;16.332;2022-07-06T07:22:57;24.20;99.90
13880;DHT22;7010;48.200;16.332;2022-07-06T07:25:25;24.40;99.90
13880;DHT22;7010;48.200;16.332;2022-07-06T07:27:55;24.70;99.90
13880;DHT22;7010;48.200;16.332;2022-07-06T07:30:24;25.30;99.90
13880;DHT22;7010;48.200;16.332;2022-07-06T07:32:52;25.80;99.90
13880;DHT22;7010;48.200;16.332;2022-07-06T07:35:22;26.20;99.90
13880;DHT22;7010;48.200;16.332;2022-07-06T07:37:51;26.60;99.90
13880;DHT22;7010;48.200;16.332;2022-07-06T07:40:19;27.00;99.90
13880;DHT22;7010;48.200;16.332;2022-07-06T07:42:48;27.60;99.90
13880;DHT22;7010;48.200;16.332;2022-07-06T07:45:19;27.30;99.90
13880;DHT22;7010;48.200;16.332;2022-07-06T07:47:47;26.70;99.90
13880;DHT22;7010;48.200;16.332;2022-07-06T07:50:15;25.90;99.90
13880;DHT22;7010;48.200;16.332;2022-07-06T07:52:45;25.20;99.90
13880;DHT22;7010;48.200;16.332;2022-07-06T07:55:13;24.80;99.90
13880;DHT22;7010;48.200;16.332;2022-07-06T07:58:01;24.50;99.90
13880;DHT22;7010;48.200;16.332;2022-07-06T08:00:31;24.50;99.90
13880;DHT22;7010;48.200;16.332;2022-07-06T08:03:00;24.50;99.90
13880;DHT22;7010;48.200;16.332;2022-07-06T08:05:28;24.10;99.90
13880;DHT22;7010;48.200;16.332;2022-07-06T08:07:56;24.10;99.90
13880;DHT22;7010;48.200;16.332;2022-07-06T08:10:25;24.30;99.90
13880;DHT22;7010;48.200;16.332;2022-07-06T08:12:53;24.90;99.90
13880;DHT22;7010;48.200;16.332;2022-07-06T08:15:21;25.80;99.90
13880;DHT22;7010;48.200;16.332;2022-07-06T08:17:51;27.40;99.90
13880;DHT22;7010;48.200;16.332;2022-07-06T08:20:20;28.90;99.90
13880;DHT22;7010;48.200;16.332;2022-07-06T08:22:48;30.50;99.90
13880;DHT22;7010;48.200;16.332;2022-07-06T08:25:17;31.50;99.90
13880;DHT22;7010;48.200;16.332;2022-07-06T08:27:45;31.70;98.30
13880;DHT22;7010;48.200;16.332;2022-07-06T08:30:14;32.50;95.60
13880;DHT22;7010;48.200;16.332;2022-07-06T08:35:33;33.10;94.30
13880;DHT22;7010;48.200;16.332;2022-07-06T08:40:32;34.80;88.70
13880;DHT22;7010;48.200;16.332;2022-07-06T08:43:01;35.60;82.00
13880;DHT22;7010;48.200;16.332;2022-07-06T08:45:30;36.10;78.80
13880;DHT22;7010;48.200;16.332;2022-07-06T08:48:05;36.10;76.20
13880;DHT22;7010;48.200;16.332;2022-07-06T08:50:35;35.10;77.20
13880;DHT22;7010;48.200;16.332;2022-07-06T08:53:04;35.60;78.90
13880;DHT22;7010;48.200;16.332;2022-07-06T08:55:33;36.50;75.30
13880;DHT22;7010;48.200;16.332;2022-07-06T08:58:02;36.40;73.50
13880;DHT22;7010;48.200;16.332;2022-07-06T09:00:34;35.80;73.20
13880;DHT22;7010;48.200;16.332;2022-07-06T09:03:02;34.00;74.40
13880;DHT22;7010;48.200;16.332;2022-07-06T09:05:32;32.80;72.40
13880;DHT22;7010;48.200;16.332;2022-07-06T09:08:04;32.50;74.80
13880;DHT22;7010;48.200;16.332;2022-07-06T09:10:32;32.20;77.30
13880;DHT22;7010;48.200;16.332;2022-07-06T09:13:05;31.80;78.90
13880;DHT22;7010;48.200;16.332;2022-07-06T09:15:34;31.50;76.90
13880;DHT22;7010;48.200;16.332;2022-07-06T09:18:04;31.00;76.50
13880;DHT22;7010;48.200;16.332;2022-07-06T09:20:33;30.60;78.90
13880;DHT22;7010;48.200;16.332;2022-07-06T09:23:04;30.20;80.30
13880;DHT22;7010;48.200;16.332;2022-07-06T09:25:40;30.40;80.20
13880;DHT22;7010;48.200;16.332;2022-07-06T09:28:08;30.60;80.90
13880;DHT22;7010;48.200;16.332;2022-07-06T09:30:36;31.20;82.90
13880;DHT22;7010;48.200;16.332;2022-07-06T09:33:08;31.50;79.40
13880;DHT22;7010;48.200;16.332;2022-07-06T09:35:37;31.50;79.50
13880;DHT22;7010;48.200;16.332;2022-07-06T09:38:10;31.20;80.40
13880;DHT22;7010;48.200;16.332;2022-07-06T09:40:40;31.10;78.80
13880;DHT22;7010;48.200;16.332;2022-07-06T09:43:11;31.00;82.20
13880;DHT22;7010;48.200;16.332;2022-07-06T09:45:40;31.60;80.50
13880;DHT22;7010;48.200;16.332;2022-07-06T09:48:11;32.60;81.00
13880;DHT22;7010;48.200;16.332;2022-07-06T09:50:46;32.90;76.80
13880;DHT22;7010;48.200;16.332;2022-07-06T09:53:16;33.30;75.80
13880;DHT22;7010;48.200;16.332;2022-07-06T09:55:45;33.30;73.00
13880;DHT22;7010;48.200;16.332;2022-07-06T09:58:14;33.00;74.70
13880;DHT22;7010;48.200;16.332;2022-07-06T10:00:43;32.90;74.90
13880;DHT22;7010;48.200;16.332;2022-07-06T10:03:12;33.40;74.50
13880;DHT22;7010;48.200;16.332;2022-07-06T10:05:42;33.80;72.80
13880;DHT22;7010;48.200;16.332;2022-07-06T10:08:10;33.60;72.70
13880;DHT22;7010;48.200;16.332;2022-07-06T10:10:41;33.00;75.00
13880;DHT22;7010;48.200;16.332;2022-07-06T10:13:10;32.60;74.30
13880;DHT22;7010;48.200;16.332;2022-07-06T10:15:40;32.50;70.40
13880;DHT22;7010;48.200;16.332;2022-07-06T10:18:09;32.60;69.50
13880;DHT22;7010;48.200;16.332;2022-07-06T10:20:38;32.20;69.70
13880;DHT22;7010;48.200;16.332;2022-07-06T10:23:08;30.80;72.30
13880;DHT22;7010;48.200;16.332;2022-07-06T10:25:36;29.50;73.80
13880;DHT22;7010;48.200;16.332;2022-07-06T10:28:07;28.90;76.00
13880;DHT22;7010;48.200;16.332;2022-07-06T10:30:42;28.30;78.90
13880;DHT22;7010;48.200;16.332;2022-07-06T10:33:11;28.10;80.80
13880;DHT22;7010;48.200;16.332;2022-07-06T10:35:42;28.20;81.20
13880;DHT22;7010;48.200;16.332;2022-07-06T10:38:11;28.10;80.30
13880;DHT22;7010;48.200;16.332;2022-07-06T10:40:40;27.40;81.90
13880;DHT22;7010;48.200;16.332;2022-07-06T10:43:36;26.60;83.40
13880;DHT22;7010;48.200;16.332;2022-07-06T10:46:09;25.90;86.40
13880;DHT22;7010;48.200;16.332;2022-07-06T10:48:39;25.60;88.50
13880;DHT22;7010;48.200;16.332;2022-07-06T10:51:08;25.30;89.30
13880;DHT22;7010;48.200;16.332;2022-07-06T10:53:39;24.80;94.60
13880;DHT22;7010;48.200;16.332;2022-07-06T10:56:09;23.90;97.40
13880;DHT22;7010;48.200;16.332;2022-07-06T10:58:46;22.90;97.30
13880;DHT22;7010;48.200;16.332;2022-07-06T11:01:15;22.20;99.90
13880;DHT22;7010;48.200;16.332;2022-07-06T11:03:44;21.90;99.90
13880;DHT22;7010;48.200;16.332;2022-07-06T11:06:15;21.40;97.80
13880;DHT22;7010;48.200;16.332;2022-07-06T11:08:52;21.30;99.10
13880;DHT22;7010;48.200;16.332;2022-07-06T11:11:22;21.20;99.60
13880;DHT22;7010;48.200;16.332;2022-07-06T11:13:55;21.10;99.30
13880;DHT22;7010;48.200;16.332;2022-07-06T11:16:25;21.10;98.70
13880;DHT22;7010;48.200;16.332;2022-07-06T11:19:06;21.10;98.90
13880;DHT22;7010;48.200;16.332;2022-07-06T11:21:43;21.30;99.80
13880;DHT22;7010;48.200;16.332;2022-07-06T11:24:13;22.10;98.10
13880;DHT22;7010;48.200;16.332;2022-07-06T11:26:43;23.10;97.30
13880;DHT22;7010;48.200;16.332;2022-07-06T11:29:15;23.80;96.00
13880;DHT22;7010;48.200;16.332;2022-07-06T11:31:46;24.30;94.00
13880;DHT22;7010;48.200;16.332;2022-07-06T11:34:18;24.70;94.50
13880;DHT22;7010;48.200;16.332;2022-07-06T11:36:47;25.60;93.60
13880;DHT22;7010;48.200;16.332;2022-07-06T11:39:15;26.40;91.90
13880;DHT22;7010;48.200;16.332;2022-07-06T11:41:44;26.90;91.80
13880;DHT22;7010;48.200;16.332;2022-07-06T11:44:19;27.50;91.20
13880;DHT22;7010;48.200;16.332;2022-07-06T11:46:47;27.90;88.90
13880;DHT22;7010;48.200;16.332;2022-07-06T11:49:16;28.00;89.60
13880;DHT22;7010;48.200;16.332;2022-07-06T11:51:46;28.40;90.50
13880;DHT22;7010;48.200;16.332;2022-07-06T11:54:16;28.70;89.10
13880;DHT22;7010;48.200;16.332;2022-07-06T11:56:48;28.80;90.50
13880;DHT22;7010;48.200;16.332;2022-07-06T11:59:23;28.90;89.90
13880;DHT22;7010;48.200;16.332;2022-07-06T12:01:59;28.80;89.40
13880;DHT22;7010;48.200;16.332;2022-07-06T12:04:28;28.80;88.70
13880;DHT22;7010;48.200;16.332;2022-07-06T12:07:00;28.30;91.20
13880;DHT22;7010;48.200;16.332;2022-07-06T12:09:30;28.20;89.80
13880;DHT22;7010;48.200;16.332;2022-07-06T12:11:59;28.30;90.10
13880;DHT22;7010;48.200;16.332;2022-07-06T12:14:32;28.40;90.40
13880;DHT22;7010;48.200;16.332;2022-07-06T12:17:03;29.10;90.40
13880;DHT22;7010;48.200;16.332;2022-07-06T12:19:33;29.70;90.30
13880;DHT22;7010;48.200;16.332;2022-07-06T12:22:01;30.00;88.70
13880;DHT22;7010;48.200;16.332;2022-07-06T12:24:31;30.40;83.20
13880;DHT22;7010;48.200;16.332;2022-07-06T12:27:10;30.20;83.00
13880;DHT22;7010;48.200;16.332;2022-07-06T12:29:40;30.50;80.50
13880;DHT22;7010;48.200;16.332;2022-07-06T12:32:14;30.20;77.60
13880;DHT22;7010;48.200;16.332;2022-07-06T12:34:43;29.80;79.50
13880;DHT22;7010;48.200;16.332;2022-07-06T12:37:12;29.10;79.00
13880;DHT22;7010;48.200;16.332;2022-07-06T12:39:42;28.60;81.10
13880;DHT22;7010;48.200;16.332;2022-07-06T12:42:10;28.20;81.70
13880;DHT22;7010;48.200;16.332;2022-07-06T12:44:48;27.80;83.20
13880;DHT22;7010;48.200;16.332;2022-07-06T12:47:18;27.60;85.60
13880;DHT22;7010;48.200;16.332;2022-07-06T12:49:49;27.70;85.40
13880;DHT22;7010;48.200;16.332;2022-07-06T12:52:17;28.00;85.10
13880;DHT22;7010;48.200;16.332;2022-07-06T12:54:47;28.50;84.80
13880;DHT22;7010;48.200;16.332;2022-07-06T12:57:17;29.00;84.30
13880;DHT22;7010;48.200;16.332;2022-07-06T12:59:54;29.10;82.40
13880;DHT22;7010;48.200;16.332;2022-07-06T13:02:24;29.00;81.40
13880;DHT22;7010;48.200;16.332;2022-07-06T13:05:14;28.90;80.20
13880;DHT22;7010;48.200;16.332;2022-07-06T13:07:45;29.10;79.10
13880;DHT22;7010;48.200;16.332;2022-07-06T13:10:15;29.60;78.80
13880;DHT22;7010;48.200;16.332;2022-07-06T13:12:44;30.00;77.10
13880;DHT22;7010;48.200;16.332;2022-07-06T13:15:15;30.70;75.10
13880;DHT22;7010;48.200;16.332;2022-07-06T13:17:43;31.10;75.90
13880;DHT22;7010;48.200;16.332;2022-07-06T13:20:13;31.30;72.00
13880;DHT22;7010;48.200;16.332;2022-07-06T13:22:44;31.20;71.40
13880;DHT22;7010;48.200;16.332;2022-07-06T13:25:12;30.90;70.40
13880;DHT22;7010;48.200;16.332;2022-07-06T13:27:40;30.80;69.00
13880;DHT22;7010;48.200;16.332;2022-07-06T13:30:10;30.50;67.90
13880;DHT22;7010;48.200;16.332;2022-07-06T13:32:39;30.40;69.10
13880;DHT22;7010;48.200;16.332;2022-07-06T13:35:08;30.10;69.20
13880;DHT22;7010;48.200;16.332;2022-07-06T13:37:37;29.40;69.90
13880;DHT22;7010;48.200;16.332;2022-07-06T13:40:06;28.80;71.00
13880;DHT22;7010;48.200;16.332;2022-07-06T13:42:34;28.30;71.90
13880;DHT22;7010;48.200;16.332;2022-07-06T13:45:03;27.50;75.70
13880;DHT22;7010;48.200;16.332;2022-07-06T13:47:31;26.90;78.70
13880;DHT22;7010;48.200;16.332;2022-07-06T13:50:01;26.10;80.10
13880;DHT22;7010;48.200;16.332;2022-07-06T13:52:29;25.50;80.80
13880;DHT22;7010;48.200;16.332;2022-07-06T13:54:58;25.20;81.50
13880;DHT22;7010;48.200;16.332;2022-07-06T13:57:28;25.00;81.40
13880;DHT22;7010;48.200;16.332;2022-07-06T13:59:56;25.00;81.90
13880;DHT22;7010;48.200;16.332;2022-07-06T14:02:24;24.80;82.30
13880;DHT22;7010;48.200;16.332;2022-07-06T14:04:53;24.80;82.40
13880;DHT22;7010;48.200;16.332;2022-07-06T14:07:22;24.80;82.90
13880;DHT22;7010;48.200;16.332;2022-07-06T14:09:51;24.90;83.50
13880;DHT22;7010;48.200;16.332;2022-07-06T14:12:19;24.90;83.80
13880;DHT22;7010;48.200;16.332;2022-07-06T14:14:50;24.60;84.80
13880;DHT22;7010;48.200;16.332;2022-07-06T14:17:18;24.40;85.40
13880;DHT22;7010;48.200;16.332;2022-07-06T14:19:47;24.50;85.80
13880;DHT22;7010;48.200;16.332;2022-07-06T14:22:16;24.80;85.80
13880;DHT22;7010;48.200;16.332;2022-07-06T14:24:46;25.00;84.70
13880;DHT22;7010;48.200;16.332;2022-07-06T14:27:14;25.00;84.90
13880;DHT22;7010;48.200;16.332;2022-07-06T14:29:42;24.90;84.00
13880;DHT22;7010;48.200;16.332;2022-07-06T14:32:11;24.80;85.10
13880;DHT22;7010;48.200;16.332;2022-07-06T14:34:39;24.80;85.30
13880;DHT22;7010;48.200;16.332;2022-07-06T14:37:07;24.40;86.00
13880;DHT22;7010;48.200;16.332;2022-07-06T14:39:36;24.10;88.40
13880;DHT22;7010;48.200;16.332;2022-07-06T14:42:06;23.70;90.70
13880;DHT22;7010;48.200;16.332;2022-07-06T14:44:34;23.20;91.90
13880;DHT22;7010;48.200;16.332;2022-07-06T14:47:03;22.80;92.90
13880;DHT22;7010;48.200;16.332;2022-07-06T14:49:31;22.60;94.00
13880;DHT22;7010;48.200;16.332;2022-07-06T14:52:00;22.40;96.00
13880;DHT22;7010;48.200;16.332;2022-07-06T14:54:28;22.20;97.00
13880;DHT22;7010;48.200;16.332;2022-07-06T14:56:56;22.00;97.60
13880;DHT22;7010;48.200;16.332;2022-07-06T14:59:26;21.90;98.00
13880;DHT22;7010;48.200;16.332;2022-07-06T15:01:55;21.90;97.50
13880;DHT22;7010;48.200;16.332;2022-07-06T15:04:23;22.10;99.90
13880;DHT22;7010;48.200;16.332;2022-07-06T15:06:51;22.20;99.90
13880;DHT22;7010;48.200;16.332;2022-07-06T15:09:23;22.30;99.90
13880;DHT22;7010;48.200;16.332;2022-07-06T15:11:52;22.40;99.90
13880;DHT22;7010;48.200;16.332;2022-07-06T15:14:22;22.60;99.90
13880;DHT22;7010;48.200;16.332;2022-07-06T15:16:52;22.80;98.70
13880;DHT22;7010;48.200;16.332;2022-07-06T15:19:20;22.90;99.00
13880;DHT22;7010;48.200;16.332;2022-07-06T15:21:48;23.20;97.70
13880;DHT22;7010;48.200;16.332;2022-07-06T15:24:17;23.60;96.90
13880;DHT22;7010;48.200;16.332;2022-07-06T15:26:45;23.80;96.60
13880;DHT22;7010;48.200;16.332;2022-07-06T15:29:15;24.00;95.60
13880;DHT22;7010;48.200;16.332;2022-07-06T15:31:43;24.20;94.90
13880;DHT22;7010;48.200;16.332;2022-07-06T15:34:15;24.30;93.90
13880;DHT22;7010;48.200;16.332;2022-07-06T15:36:46;24.10;93.40
13880;DHT22;7010;48.200;16.332;2022-07-06T15:39:16;24.20;93.80
13880;DHT22;7010;48.200;16.332;2022-07-06T15:41:44;24.10;93.70
13880;DHT22;7010;48.200;16.332;2022-07-06T15:44:12;24.10;93.00
13880;DHT22;7010;48.200;16.332;2022-07-06T15:46:41;24.10;92.00
13880;DHT22;7010;48.200;16.332;2022-07-06T15:49:09;24.10;90.80
13880;DHT22;7010;48.200;16.332;2022-07-06T15:51:39;24.10;91.40